Afyon Airport Afyonkarahisar TR
ICAO: LTAH
IATA: AFY
Category: Medium
Scheduled Services: No

Elevation: 3310 ft
TransAlt. 12000 ft.

Airport Communications:
APP:122.1
TWR:122.1

LTAH Zoom In..

If you have problems with the map follow the link
https://www.worldairports.se/pages/airport.php?
ICAO=LTAH

Runways:

(A) RW 13L length 12008 ft width 148 ft
---- / hdg 130

(B) RW 13R length 9843 ft width 148 ft
---- / hdg 130

(C) RW 31L length 9843 ft width 148 ft
---- / hdg 310

(D) RW 31R length 12008 ft width 148 ft
---- / hdg 310

Location; LTAH
Day. 22 / Time. 10.50 Zulu
* QNH: 1015
* Temperature: 11° c. 51.8°f.
* Wind from: 250° Speed 10 kn.
Dewpoint: -04° c.
Visibility: 10 km or more.
Clouds: Scattered 3500 ft.

LTAH 221050Z 25010KT 220V280 9999 SCT035 11/M04 Q1015 RMK RWY13 26014KT 230V290


Wind From 250°
Speed 10 kn.

 
 
jpsmedia.com for Web Design worldairports.se 2019   terms of use